createdAt,value
2018-09-09T00:00:21.633Z,19.00
2018-09-09T00:00:55.559Z,19.10
2018-09-09T00:01:29.121Z,19.00
2018-09-09T00:02:02.645Z,19.10
2018-09-09T00:02:36.140Z,19.10
2018-09-09T00:03:10.751Z,19.00
2018-09-09T00:03:44.231Z,19.10
2018-09-09T00:04:17.724Z,19.10
2018-09-09T00:04:52.494Z,19.00
2018-09-09T00:05:26.721Z,19.00
2018-09-09T00:06:00.636Z,19.00
2018-09-09T00:06:34.164Z,19.00
2018-09-09T00:07:07.673Z,19.00
2018-09-09T00:07:41.181Z,19.00
2018-09-09T00:08:14.726Z,19.00
2018-09-09T00:08:48.220Z,19.00
2018-09-09T00:09:28.369Z,19.00
2018-09-09T00:10:03.009Z,19.00
2018-09-09T00:10:36.575Z,19.00
2018-09-09T00:11:12.391Z,19.00
2018-09-09T00:11:46.227Z,19.00
2018-09-09T00:12:20.634Z,19.00
2018-09-09T00:12:54.802Z,19.00
2018-09-09T00:13:29.363Z,19.00
2018-09-09T00:14:03.005Z,19.00
2018-09-09T00:14:36.625Z,19.00
2018-09-09T00:15:10.405Z,19.00
2018-09-09T00:15:44.615Z,19.00
2018-09-09T00:16:18.140Z,19.00
2018-09-09T00:16:52.282Z,19.00
2018-09-09T00:17:25.758Z,19.00
2018-09-09T00:17:59.301Z,18.90
2018-09-09T00:18:33.509Z,19.00
2018-09-09T00:19:07.388Z,19.00
2018-09-09T00:19:41.162Z,18.90
2018-09-09T00:20:14.736Z,19.00
2018-09-09T00:20:48.992Z,19.00
2018-09-09T00:21:22.590Z,19.00
2018-09-09T00:21:57.049Z,19.00
2018-09-09T00:22:30.646Z,19.00
2018-09-09T00:23:04.634Z,19.00
2018-09-09T00:23:38.715Z,19.00
2018-09-09T00:24:13.704Z,19.00
2018-09-09T00:24:47.223Z,19.00
2018-09-09T00:25:20.747Z,19.00
2018-09-09T00:25:55.554Z,19.00
2018-09-09T00:26:29.136Z,19.00
2018-09-09T00:27:04.029Z,19.00
2018-09-09T00:27:37.569Z,18.90
2018-09-09T00:28:11.028Z,19.00
2018-09-09T00:28:46.797Z,18.90
2018-09-09T00:29:20.335Z,18.90
2018-09-09T00:29:53.917Z,18.90
2018-09-09T00:30:27.444Z,18.90
2018-09-09T00:31:00.952Z,18.90
2018-09-09T00:31:35.942Z,18.90
2018-09-09T00:32:09.490Z,18.90
2018-09-09T00:32:42.935Z,18.90
2018-09-09T00:33:16.401Z,18.90
2018-09-09T00:33:51.000Z,18.90
2018-09-09T00:34:25.099Z,18.90
2018-09-09T00:34:58.856Z,18.90
2018-09-09T00:35:34.038Z,18.90
2018-09-09T00:36:07.979Z,18.90
2018-09-09T00:36:42.186Z,18.90
2018-09-09T00:37:16.233Z,18.90
2018-09-09T00:37:49.733Z,18.90
2018-09-09T00:38:24.219Z,18.90
2018-09-09T00:38:57.985Z,18.90
2018-09-09T00:39:32.176Z,18.90
2018-09-09T00:40:06.126Z,18.90
2018-09-09T00:41:54.641Z,18.90
2018-09-09T00:42:28.968Z,18.80
2018-09-09T00:43:02.492Z,18.80
2018-09-09T00:43:36.750Z,18.80
2018-09-09T00:44:10.349Z,18.80
2018-09-09T00:44:43.798Z,18.80
2018-09-09T00:45:17.316Z,18.80
2018-09-09T00:45:51.019Z,18.80
2018-09-09T00:46:24.579Z,18.80
2018-09-09T00:46:58.711Z,18.80
2018-09-09T00:47:33.079Z,18.80
2018-09-09T00:48:07.207Z,18.80
2018-09-09T00:48:40.842Z,18.80
2018-09-09T00:49:19.653Z,18.80
2018-09-09T00:49:58.371Z,18.80
2018-09-09T00:50:37.709Z,18.80
2018-09-09T00:51:16.391Z,18.80
2018-09-09T00:51:55.213Z,18.80
2018-09-09T00:52:37.097Z,18.80
2018-09-09T00:53:28.510Z,18.80
2018-09-09T00:54:05.469Z,18.80
2018-09-09T00:54:40.461Z,18.80
2018-09-09T00:55:15.200Z,18.80
2018-09-09T00:55:48.679Z,18.80
2018-09-09T00:56:22.216Z,18.80
2018-09-09T00:56:56.402Z,18.80
2018-09-09T00:57:31.242Z,18.80
2018-09-09T00:58:04.737Z,18.80
2018-09-09T00:58:38.254Z,18.80
2018-09-09T00:59:12.002Z,18.80
2018-09-09T00:59:45.909Z,18.80
2018-09-09T01:00:24.719Z,18.80
2018-09-09T01:01:03.544Z,18.80
2018-09-09T01:01:37.316Z,18.80
2018-09-09T01:02:10.751Z,18.80
2018-09-09T01:02:44.349Z,18.80
2018-09-09T01:03:17.914Z,18.80
2018-09-09T01:03:51.422Z,18.70
2018-09-09T01:04:26.058Z,18.70
2018-09-09T01:04:59.592Z,18.70
2018-09-09T01:05:33.032Z,18.70
2018-09-09T01:06:07.297Z,18.70
2018-09-09T01:06:40.843Z,18.70
2018-09-09T01:07:17.939Z,18.70
2018-09-09T01:07:52.109Z,18.70
2018-09-09T01:08:25.599Z,18.70
2018-09-09T01:09:03.777Z,18.70
2018-09-09T01:09:38.065Z,18.70
2018-09-09T01:10:28.384Z,18.70
2018-09-09T01:11:02.220Z,18.70
2018-09-09T01:11:47.810Z,18.60
2018-09-09T01:12:21.325Z,18.60
2018-09-09T01:12:55.643Z,18.60
2018-09-09T01:13:29.192Z,18.60
2018-09-09T01:14:02.751Z,18.60
2018-09-09T01:14:38.874Z,18.60
2018-09-09T01:15:12.474Z,18.60
2018-09-09T01:15:46.353Z,18.60
2018-09-09T01:16:19.910Z,18.50
2018-09-09T01:16:53.525Z,18.50
2018-09-09T01:17:27.204Z,18.50
2018-09-09T01:18:00.756Z,18.60
2018-09-09T01:18:34.441Z,18.60
2018-09-09T01:19:08.009Z,18.60
2018-09-09T01:19:42.006Z,18.60
2018-09-09T01:20:16.283Z,18.60
2018-09-09T01:20:49.785Z,18.60
2018-09-09T01:21:23.292Z,18.60
2018-09-09T01:21:56.972Z,18.50
2018-09-09T01:22:30.685Z,18.60
2018-09-09T01:23:04.801Z,18.50
2018-09-09T01:23:38.475Z,18.50
2018-09-09T01:24:11.990Z,18.50
2018-09-09T01:24:45.455Z,18.60
2018-09-09T01:25:19.001Z,18.60
2018-09-09T01:25:52.608Z,18.60
2018-09-09T01:26:26.287Z,18.60
2018-09-09T01:26:59.744Z,18.50
2018-09-09T01:27:33.182Z,18.60
2018-09-09T01:28:08.128Z,18.60
2018-09-09T01:28:41.580Z,18.60
2018-09-09T01:29:15.304Z,18.60
2018-09-09T01:29:48.876Z,18.60
2018-09-09T01:30:22.379Z,18.60
2018-09-09T01:30:55.985Z,18.60
2018-09-09T01:31:30.417Z,18.60
2018-09-09T01:32:03.991Z,18.60
2018-09-09T01:32:37.666Z,18.60
2018-09-09T01:33:11.789Z,18.60
2018-09-09T01:33:45.303Z,18.60
2018-09-09T01:34:18.883Z,18.60
2018-09-09T01:34:52.405Z,18.60
2018-09-09T01:35:27.452Z,18.60
2018-09-09T01:36:00.971Z,18.60
2018-09-09T01:36:35.192Z,18.60
2018-09-09T01:37:08.705Z,18.60
2018-09-09T01:37:42.498Z,18.60
2018-09-09T01:38:16.384Z,18.60
2018-09-09T01:38:49.896Z,18.60
2018-09-09T01:39:23.432Z,18.60
2018-09-09T01:39:56.992Z,18.50
2018-09-09T01:40:30.557Z,18.50
2018-09-09T01:41:04.086Z,18.50
2018-09-09T01:41:37.618Z,18.50
2018-09-09T01:42:11.172Z,18.50
2018-09-09T01:42:44.639Z,18.40
2018-09-09T01:43:18.497Z,18.40
2018-09-09T01:43:52.022Z,18.40
2018-09-09T01:44:25.550Z,18.40
2018-09-09T01:44:59.092Z,18.40
2018-09-09T01:45:32.918Z,18.40
2018-09-09T01:46:06.396Z,18.40
2018-09-09T01:46:40.437Z,18.40
2018-09-09T01:47:14.023Z,18.40
2018-09-09T01:47:47.493Z,18.40
2018-09-09T01:48:21.750Z,18.40
2018-09-09T01:48:55.307Z,18.40
2018-09-09T01:49:28.860Z,18.40
2018-09-09T01:50:02.332Z,18.40
2018-09-09T01:50:36.138Z,18.40
2018-09-09T01:51:11.173Z,18.50
2018-09-09T01:51:44.689Z,18.40
2018-09-09T01:52:18.764Z,18.40
2018-09-09T01:52:52.413Z,18.40
2018-09-09T01:53:25.961Z,18.40
2018-09-09T01:53:59.724Z,18.40
2018-09-09T01:54:34.146Z,18.50
2018-09-09T01:55:07.839Z,18.50
2018-09-09T01:55:41.311Z,18.50
2018-09-09T01:56:14.932Z,18.50
2018-09-09T01:56:48.500Z,18.50
2018-09-09T01:57:22.241Z,18.50
2018-09-09T01:57:56.249Z,18.50
2018-09-09T01:58:30.289Z,18.50
2018-09-09T01:59:04.393Z,18.50
2018-09-09T01:59:37.961Z,18.50
2018-09-09T02:00:11.650Z,18.50
2018-09-09T02:00:45.177Z,18.50
2018-09-09T02:01:18.730Z,18.50
2018-09-09T02:01:52.521Z,18.50
2018-09-09T02:02:26.011Z,18.50
2018-09-09T02:02:59.490Z,18.50
2018-09-09T02:03:32.943Z,18.40
2018-09-09T02:04:06.446Z,18.50
2018-09-09T02:04:40.310Z,18.50
2018-09-09T02:05:14.489Z,18.50
2018-09-09T02:05:48.516Z,18.50
2018-09-09T02:06:22.130Z,18.50
2018-09-09T02:06:55.675Z,18.50
2018-09-09T02:07:29.147Z,18.50
2018-09-09T02:08:02.681Z,18.50
2018-09-09T02:08:36.214Z,18.50
2018-09-09T02:09:09.710Z,18.50
2018-09-09T02:09:43.256Z,18.50
2018-09-09T02:10:16.803Z,18.50
2018-09-09T02:10:50.304Z,18.40
2018-09-09T02:11:23.805Z,18.40
2018-09-09T02:11:57.391Z,18.40
2018-09-09T02:12:31.545Z,18.40
2018-09-09T02:13:05.059Z,18.50
2018-09-09T02:13:38.689Z,18.50
2018-09-09T02:14:12.187Z,18.50
2018-09-09T02:14:46.487Z,18.50
2018-09-09T02:15:20.284Z,18.50
2018-09-09T02:15:53.779Z,18.50
2018-09-09T02:16:27.639Z,18.40
2018-09-09T02:17:01.175Z,18.40
2018-09-09T02:17:35.544Z,18.40
2018-09-09T02:18:09.081Z,18.40
2018-09-09T02:18:43.010Z,18.50
2018-09-09T02:19:16.596Z,18.50
2018-09-09T02:19:50.099Z,18.50
2018-09-09T02:20:23.567Z,18.50
2018-09-09T02:20:57.042Z,18.50
2018-09-09T02:21:31.017Z,18.50
2018-09-09T02:22:04.566Z,18.50
2018-09-09T02:22:39.633Z,18.50
2018-09-09T02:23:13.215Z,18.50
2018-09-09T02:23:47.143Z,18.50
2018-09-09T02:24:20.653Z,18.40
2018-09-09T02:24:55.060Z,18.40
2018-09-09T02:25:28.619Z,18.40
2018-09-09T02:26:02.637Z,18.40
2018-09-09T02:26:36.957Z,18.40
2018-09-09T02:27:11.328Z,18.40
2018-09-09T02:27:44.915Z,18.40
2018-09-09T02:28:18.607Z,18.40
2018-09-09T02:28:52.115Z,18.40
2018-09-09T02:29:25.796Z,18.50
2018-09-09T02:29:59.326Z,18.50
2018-09-09T02:30:32.863Z,18.50
2018-09-09T02:31:06.387Z,18.40
2018-09-09T02:31:40.699Z,18.40
2018-09-09T02:32:14.416Z,18.40
2018-09-09T02:32:47.873Z,18.40
2018-09-09T02:33:21.404Z,18.40
2018-09-09T02:33:54.900Z,18.40
2018-09-09T02:34:28.509Z,18.40
2018-09-09T02:35:02.782Z,18.40
2018-09-09T02:35:36.343Z,18.40
2018-09-09T02:36:10.678Z,18.40
2018-09-09T02:36:44.196Z,18.40
2018-09-09T02:37:18.297Z,18.40
2018-09-09T02:37:51.850Z,18.40
2018-09-09T02:38:25.334Z,18.40
2018-09-09T02:38:59.964Z,18.50
2018-09-09T02:39:33.508Z,18.50
2018-09-09T02:40:07.564Z,18.50
2018-09-09T02:40:41.155Z,18.50
2018-09-09T02:41:15.333Z,18.40
2018-09-09T02:41:48.918Z,18.50
2018-09-09T02:42:22.455Z,18.40
2018-09-09T02:42:56.486Z,18.50
2018-09-09T02:43:29.978Z,18.50
2018-09-09T02:44:03.451Z,18.50
2018-09-09T02:44:37.604Z,18.50
2018-09-09T02:45:11.165Z,18.50
2018-09-09T02:45:44.902Z,18.50
2018-09-09T02:46:18.695Z,18.50
2018-09-09T02:46:52.278Z,18.50
2018-09-09T02:47:27.923Z,18.50
2018-09-09T02:48:01.503Z,18.40
2018-09-09T02:48:35.434Z,18.50
2018-09-09T02:49:08.964Z,18.40
2018-09-09T02:49:42.521Z,18.40
2018-09-09T02:50:16.067Z,18.40
2018-09-09T02:50:49.920Z,18.40
2018-09-09T02:51:23.546Z,18.40
2018-09-09T02:51:57.464Z,18.40
2018-09-09T02:52:31.719Z,18.40
2018-09-09T02:53:05.959Z,18.40
2018-09-09T02:53:39.784Z,18.40
2018-09-09T02:54:13.266Z,18.40
2018-09-09T02:54:48.570Z,18.40
2018-09-09T02:55:23.036Z,18.30
2018-09-09T02:55:56.569Z,18.40
2018-09-09T02:56:30.091Z,18.40
2018-09-09T02:57:03.581Z,18.40
2018-09-09T02:57:38.446Z,18.40
2018-09-09T02:58:12.625Z,18.40
2018-09-09T02:58:47.089Z,18.40
2018-09-09T02:59:20.619Z,18.40
2018-09-09T02:59:54.161Z,18.40
2018-09-09T03:00:28.563Z,18.40
2018-09-09T03:01:02.599Z,18.40
2018-09-09T03:01:36.153Z,18.30
2018-09-09T03:02:10.583Z,18.30
2018-09-09T03:02:45.537Z,18.30
2018-09-09T03:03:19.012Z,18.30
2018-09-09T03:03:53.387Z,18.30
2018-09-09T03:04:26.824Z,18.30
2018-09-09T03:05:00.321Z,18.30
2018-09-09T03:05:33.917Z,18.30
2018-09-09T03:06:07.737Z,18.30
2018-09-09T03:06:41.208Z,18.30
2018-09-09T03:07:14.857Z,18.30
2018-09-09T03:07:48.657Z,18.30
2018-09-09T03:08:22.583Z,18.30
2018-09-09T03:08:56.131Z,18.20
2018-09-09T03:09:30.876Z,18.30
2018-09-09T03:10:04.424Z,18.20
2018-09-09T03:10:38.956Z,18.30
2018-09-09T03:11:15.367Z,18.30
2018-09-09T03:11:48.870Z,18.30
2018-09-09T03:12:22.414Z,18.30
2018-09-09T03:12:55.980Z,18.30
2018-09-09T03:13:30.089Z,18.30
2018-09-09T03:14:04.316Z,18.30
2018-09-09T03:14:37.884Z,18.30
2018-09-09T03:15:12.183Z,18.20
2018-09-09T03:15:45.896Z,18.20
2018-09-09T03:16:19.433Z,18.20
2018-09-09T03:16:53.594Z,18.20
2018-09-09T03:17:27.087Z,18.20
2018-09-09T03:18:01.164Z,18.20
2018-09-09T03:18:35.089Z,18.20
2018-09-09T03:19:08.627Z,18.20
2018-09-09T03:19:42.123Z,18.20
2018-09-09T03:20:15.612Z,18.20
2018-09-09T03:20:49.417Z,18.20
2018-09-09T03:21:22.916Z,18.20
2018-09-09T03:21:56.413Z,18.20
2018-09-09T03:22:30.153Z,18.20
2018-09-09T03:23:03.607Z,18.20
2018-09-09T03:23:37.658Z,18.20
2018-09-09T03:24:11.162Z,18.20
2018-09-09T03:24:45.087Z,18.20
2018-09-09T03:25:18.538Z,18.20
2018-09-09T03:25:52.065Z,18.10
2018-09-09T03:26:26.590Z,18.10
2018-09-09T03:27:00.077Z,18.10
2018-09-09T03:27:33.981Z,18.10
2018-09-09T03:28:07.409Z,18.10
2018-09-09T03:28:40.973Z,18.10
2018-09-09T03:29:15.559Z,18.10
2018-09-09T03:29:49.514Z,18.10
2018-09-09T03:30:23.227Z,18.10
2018-09-09T03:30:56.751Z,18.10
2018-09-09T03:31:30.613Z,18.10
2018-09-09T03:32:04.871Z,18.10
2018-09-09T03:32:38.460Z,18.10
2018-09-09T03:33:12.223Z,18.10
2018-09-09T03:33:47.955Z,18.10
2018-09-09T03:34:22.169Z,18.20
2018-09-09T03:34:56.223Z,18.20
2018-09-09T03:35:29.765Z,18.20
2018-09-09T03:36:03.292Z,18.20
2018-09-09T03:36:36.823Z,18.20
2018-09-09T03:37:11.420Z,18.20
2018-09-09T03:37:45.077Z,18.20
2018-09-09T03:38:18.689Z,18.20
2018-09-09T03:38:52.296Z,18.20
2018-09-09T03:39:25.784Z,18.20
2018-09-09T03:39:59.267Z,18.20
2018-09-09T03:40:33.241Z,18.20
2018-09-09T03:41:07.385Z,18.20
2018-09-09T03:41:40.962Z,18.20
2018-09-09T03:42:14.765Z,18.20
2018-09-09T03:42:48.337Z,18.20
2018-09-09T03:43:21.869Z,18.10
2018-09-09T03:43:56.657Z,18.20
2018-09-09T03:44:30.161Z,18.10
2018-09-09T03:45:03.970Z,18.10
2018-09-09T03:45:37.622Z,18.10
2018-09-09T03:46:11.550Z,18.10
2018-09-09T03:46:45.017Z,18.10
2018-09-09T03:47:19.109Z,18.10
2018-09-09T03:47:52.621Z,18.10
2018-09-09T03:48:26.083Z,18.10
2018-09-09T03:48:59.608Z,18.10
2018-09-09T03:49:33.675Z,18.10
2018-09-09T03:50:07.250Z,18.10
2018-09-09T03:50:41.054Z,18.10
2018-09-09T03:51:14.585Z,18.20
2018-09-09T03:51:48.705Z,18.10
2018-09-09T03:52:22.228Z,18.10
2018-09-09T03:52:55.650Z,18.10
2018-09-09T03:53:29.124Z,18.10
2018-09-09T03:54:03.339Z,18.10
2018-09-09T03:54:37.441Z,18.10
2018-09-09T03:55:11.000Z,18.10
2018-09-09T03:55:44.531Z,18.10
2018-09-09T03:56:19.060Z,18.10
2018-09-09T03:56:52.556Z,18.10
2018-09-09T03:57:26.074Z,18.10
2018-09-09T03:57:59.711Z,18.10
2018-09-09T03:58:34.037Z,18.10
2018-09-09T03:59:07.495Z,18.00
2018-09-09T03:59:41.028Z,18.00
2018-09-09T04:00:14.635Z,18.10
2018-09-09T04:00:48.237Z,18.10
2018-09-09T04:01:22.369Z,18.10
2018-09-09T04:01:55.878Z,18.10
2018-09-09T04:02:29.474Z,18.10
2018-09-09T04:03:02.940Z,18.10
2018-09-09T04:03:37.720Z,18.10
2018-09-09T04:04:11.308Z,18.10
2018-09-09T04:04:45.119Z,18.10
2018-09-09T04:05:18.991Z,18.10
2018-09-09T04:05:52.609Z,18.10
2018-09-09T04:06:26.881Z,18.10
2018-09-09T04:07:00.347Z,18.10
2018-09-09T04:07:34.376Z,18.10
2018-09-09T04:08:07.923Z,18.10
2018-09-09T04:08:41.734Z,18.10
2018-09-09T04:09:16.164Z,18.10
2018-09-09T04:09:50.241Z,18.10
2018-09-09T04:10:24.208Z,18.10
2018-09-09T04:10:57.761Z,18.10
2018-09-09T04:11:31.312Z,18.10
2018-09-09T04:12:06.578Z,18.10
2018-09-09T04:12:40.115Z,18.10
2018-09-09T04:13:14.193Z,18.10
2018-09-09T04:13:47.711Z,18.10
2018-09-09T04:14:21.534Z,18.10
2018-09-09T04:14:55.553Z,18.10
2018-09-09T04:15:29.377Z,18.10
2018-09-09T04:16:03.322Z,18.00
2018-09-09T04:16:36.837Z,18.00
2018-09-09T04:17:10.466Z,18.00
2018-09-09T04:17:43.949Z,18.00
2018-09-09T04:18:17.840Z,18.00
2018-09-09T04:18:51.398Z,18.00
2018-09-09T04:19:25.034Z,18.00
2018-09-09T04:19:59.762Z,18.00
2018-09-09T04:20:33.346Z,18.00
2018-09-09T04:21:07.199Z,18.00
2018-09-09T04:21:49.068Z,18.00
2018-09-09T04:22:25.041Z,18.00
2018-09-09T04:22:59.154Z,18.00
2018-09-09T04:23:33.672Z,18.00
2018-09-09T04:24:07.220Z,18.00
2018-09-09T04:24:41.453Z,18.00
2018-09-09T04:25:14.935Z,17.90
2018-09-09T04:25:49.226Z,18.00
2018-09-09T04:26:22.743Z,18.00
2018-09-09T04:26:56.248Z,18.00
2018-09-09T04:27:29.797Z,18.00
2018-09-09T04:28:03.316Z,18.00
2018-09-09T04:28:36.913Z,18.00
2018-09-09T04:29:10.366Z,18.00
2018-09-09T04:29:43.864Z,18.00
2018-09-09T04:30:17.379Z,18.00
2018-09-09T04:30:51.045Z,18.00
2018-09-09T04:31:25.443Z,18.00
2018-09-09T04:32:00.682Z,18.00
2018-09-09T04:32:34.261Z,18.00
2018-09-09T04:33:08.280Z,18.00
2018-09-09T04:33:42.120Z,18.00
2018-09-09T04:34:15.634Z,18.00
2018-09-09T04:34:49.168Z,18.00
2018-09-09T04:35:22.646Z,18.00
2018-09-09T04:35:57.028Z,18.00
2018-09-09T04:36:30.730Z,18.00
2018-09-09T04:37:04.487Z,18.00
2018-09-09T04:37:38.178Z,18.00
2018-09-09T04:38:11.960Z,18.00
2018-09-09T04:38:45.455Z,18.00
2018-09-09T04:39:19.043Z,18.00
2018-09-09T04:39:52.967Z,18.00
2018-09-09T04:40:26.444Z,18.00
2018-09-09T04:41:00.026Z,18.10
2018-09-09T04:41:33.628Z,18.10
2018-09-09T04:42:07.215Z,18.10
2018-09-09T04:42:41.425Z,18.10
2018-09-09T04:43:14.890Z,18.10
2018-09-09T04:43:48.709Z,18.10
2018-09-09T04:44:22.272Z,18.00
2018-09-09T04:44:56.143Z,18.10
2018-09-09T04:45:30.691Z,18.10
2018-09-09T04:46:04.850Z,18.10
2018-09-09T04:46:39.035Z,18.00
2018-09-09T04:47:12.826Z,18.00
2018-09-09T04:47:46.304Z,18.00
2018-09-09T04:48:20.080Z,18.00
2018-09-09T04:48:55.082Z,18.00
2018-09-09T04:49:28.562Z,18.00
2018-09-09T04:50:02.215Z,18.00
2018-09-09T04:50:36.524Z,18.00
2018-09-09T04:51:11.099Z,18.00
2018-09-09T04:51:45.626Z,17.90
2018-09-09T04:52:19.818Z,17.90
2018-09-09T04:52:53.459Z,17.90
2018-09-09T04:53:27.008Z,17.90
2018-09-09T04:54:00.769Z,17.90
2018-09-09T04:54:35.040Z,17.90
2018-09-09T04:55:08.763Z,17.90
2018-09-09T04:55:43.051Z,17.90
2018-09-09T04:56:16.585Z,17.90
2018-09-09T04:56:50.045Z,17.90
2018-09-09T04:57:24.655Z,17.90
2018-09-09T04:57:58.096Z,17.90
2018-09-09T04:58:31.756Z,17.90
2018-09-09T04:59:05.270Z,17.90
2018-09-09T04:59:38.795Z,17.90
2018-09-09T05:00:12.980Z,17.90
2018-09-09T05:00:46.546Z,17.90
2018-09-09T05:01:20.395Z,17.90
2018-09-09T05:01:54.165Z,17.90
2018-09-09T05:02:27.602Z,18.00
2018-09-09T05:03:01.332Z,18.00
2018-09-09T05:03:34.824Z,18.00
2018-09-09T05:04:08.375Z,18.00
2018-09-09T05:04:42.224Z,18.00
2018-09-09T05:05:15.772Z,18.00
2018-09-09T05:05:49.280Z,18.00
2018-09-09T05:06:23.031Z,18.00
2018-09-09T05:06:56.711Z,18.00
2018-09-09T05:07:30.805Z,18.00
2018-09-09T05:08:04.589Z,18.00
2018-09-09T05:08:38.116Z,18.00
2018-09-09T05:09:11.940Z,18.00
2018-09-09T05:09:45.476Z,18.00
2018-09-09T05:10:19.146Z,18.00
2018-09-09T05:10:53.450Z,18.00
2018-09-09T05:11:27.552Z,18.10
2018-09-09T05:12:02.474Z,18.10
2018-09-09T05:12:36.493Z,18.10
2018-09-09T05:13:10.504Z,18.10
2018-09-09T05:13:44.005Z,18.10
2018-09-09T05:14:18.453Z,18.10
2018-09-09T05:14:52.013Z,18.00
2018-09-09T05:15:25.731Z,18.10
2018-09-09T05:15:59.265Z,18.10
2018-09-09T05:16:33.543Z,18.10
2018-09-09T05:17:07.104Z,18.00
2018-09-09T05:17:41.804Z,18.10
2018-09-09T05:18:15.325Z,18.10
2018-09-09T05:18:48.872Z,18.00
2018-09-09T05:19:22.544Z,18.00
2018-09-09T05:19:56.729Z,18.10
2018-09-09T05:20:30.186Z,18.10
2018-09-09T05:21:04.797Z,18.00
2018-09-09T05:21:38.341Z,18.10
2018-09-09T05:22:12.222Z,18.00
2018-09-09T05:22:45.964Z,18.00
2018-09-09T05:23:19.506Z,18.00
2018-09-09T05:23:53.579Z,18.00
2018-09-09T05:24:27.039Z,18.00
2018-09-09T05:25:01.735Z,18.00
2018-09-09T05:25:35.306Z,18.00
2018-09-09T05:26:08.747Z,18.00
2018-09-09T05:26:42.278Z,18.00
2018-09-09T05:27:16.514Z,18.00
2018-09-09T05:27:50.674Z,18.00
2018-09-09T05:28:24.566Z,18.00
2018-09-09T05:28:58.711Z,17.90
2018-09-09T05:29:32.283Z,17.90
2018-09-09T05:30:06.345Z,17.90
2018-09-09T05:30:39.877Z,17.90
2018-09-09T05:31:13.906Z,17.90
2018-09-09T05:31:47.462Z,17.90
2018-09-09T05:32:20.953Z,17.90
2018-09-09T05:32:54.603Z,17.90
2018-09-09T05:33:28.941Z,17.90
2018-09-09T05:34:02.474Z,17.90
2018-09-09T05:34:36.884Z,17.90
2018-09-09T05:35:10.339Z,17.90
2018-09-09T05:35:44.773Z,17.90
2018-09-09T05:36:18.295Z,17.90
2018-09-09T05:36:52.243Z,17.90
2018-09-09T05:37:25.915Z,17.90
2018-09-09T05:37:59.542Z,17.90
2018-09-09T05:38:33.273Z,17.90
2018-09-09T05:39:10.519Z,17.90
2018-09-09T05:39:44.568Z,17.90
2018-09-09T05:40:18.013Z,17.90
2018-09-09T05:40:51.957Z,17.90
2018-09-09T05:41:25.517Z,17.90
2018-09-09T05:42:00.060Z,17.90
2018-09-09T05:42:33.622Z,17.90
2018-09-09T05:43:08.105Z,17.90
2018-09-09T05:43:41.750Z,17.90
2018-09-09T05:44:15.758Z,17.90
2018-09-09T05:44:49.634Z,18.00
2018-09-09T05:45:23.084Z,17.90
2018-09-09T05:45:56.739Z,18.00
2018-09-09T05:46:30.179Z,18.00
2018-09-09T05:47:03.666Z,18.00
2018-09-09T05:47:37.291Z,18.00
2018-09-09T05:48:11.590Z,18.00
2018-09-09T05:48:45.059Z,18.00
2018-09-09T05:49:20.764Z,18.00
2018-09-09T05:49:55.689Z,18.00
2018-09-09T05:50:29.162Z,18.00
2018-09-09T05:51:04.157Z,17.90
2018-09-09T05:51:37.756Z,18.00
2018-09-09T05:52:11.260Z,17.90
2018-09-09T05:52:44.798Z,18.00
2018-09-09T05:53:18.268Z,18.00
2018-09-09T05:53:51.747Z,18.00
2018-09-09T05:54:25.698Z,18.00
2018-09-09T05:55:00.102Z,18.00
2018-09-09T05:55:33.680Z,18.00
2018-09-09T05:56:07.976Z,17.90
2018-09-09T05:56:41.563Z,17.80
2018-09-09T05:57:15.745Z,18.00
2018-09-09T05:57:50.066Z,18.00
2018-09-09T05:58:23.577Z,18.00
2018-09-09T05:58:57.552Z,18.00
2018-09-09T05:59:31.023Z,18.00
2018-09-09T06:00:05.425Z,18.00
2018-09-09T06:00:39.002Z,18.00
2018-09-09T06:01:13.301Z,18.00
2018-09-09T06:01:47.649Z,18.00
2018-09-09T06:02:21.231Z,18.00
2018-09-09T06:02:55.371Z,18.00
2018-09-09T06:03:28.924Z,18.00
2018-09-09T06:04:02.374Z,18.00
2018-09-09T06:04:36.564Z,18.00
2018-09-09T06:05:10.783Z,18.00
2018-09-09T06:05:44.308Z,18.00
2018-09-09T06:06:17.913Z,18.00
2018-09-09T06:06:51.912Z,18.00
2018-09-09T06:07:25.448Z,18.00
2018-09-09T06:07:59.748Z,18.00
2018-09-09T06:08:33.282Z,18.00
2018-09-09T06:09:09.304Z,17.90
2018-09-09T06:09:42.793Z,18.00
2018-09-09T06:10:17.252Z,18.00
2018-09-09T06:10:54.542Z,18.00
2018-09-09T06:11:29.191Z,17.90
2018-09-09T06:12:02.744Z,17.90
2018-09-09T06:12:36.308Z,17.90
2018-09-09T06:13:11.544Z,17.90
2018-09-09T06:13:45.702Z,17.90
2018-09-09T06:14:19.736Z,17.90
2018-09-09T06:14:53.290Z,17.90
2018-09-09T06:15:27.234Z,17.90
2018-09-09T06:16:00.881Z,17.90
2018-09-09T06:16:34.865Z,17.90
2018-09-09T06:17:09.122Z,17.90
2018-09-09T06:17:42.728Z,18.00
2018-09-09T06:18:16.205Z,18.00
2018-09-09T06:18:49.668Z,17.90
2018-09-09T06:19:23.532Z,18.00
2018-09-09T06:19:57.010Z,18.00
2018-09-09T06:20:31.493Z,17.90
2018-09-09T06:21:05.856Z,17.90
2018-09-09T06:21:39.500Z,18.00
2018-09-09T06:22:12.962Z,18.00
2018-09-09T06:22:46.416Z,18.00
2018-09-09T06:23:19.949Z,18.00
2018-09-09T06:23:53.743Z,18.00
2018-09-09T06:24:27.724Z,18.00
2018-09-09T06:25:01.281Z,18.00
2018-09-09T06:25:35.045Z,18.00
2018-09-09T06:26:08.512Z,18.00
2018-09-09T06:26:42.488Z,18.00
2018-09-09T06:27:16.053Z,18.00
2018-09-09T06:27:49.863Z,18.00
2018-09-09T06:28:24.491Z,18.00
2018-09-09T06:28:57.979Z,17.90
2018-09-09T06:29:31.643Z,18.00
2018-09-09T06:30:05.510Z,18.00
2018-09-09T06:30:39.589Z,18.00
2018-09-09T06:31:13.189Z,18.00
2018-09-09T06:31:46.715Z,18.00
2018-09-09T06:32:20.788Z,18.00
2018-09-09T06:32:55.041Z,18.00
2018-09-09T06:33:29.403Z,18.00
2018-09-09T06:34:05.768Z,18.00
2018-09-09T06:34:39.314Z,18.00
2018-09-09T06:35:14.479Z,18.10
2018-09-09T06:35:48.075Z,18.10
2018-09-09T06:36:21.987Z,18.00
2018-09-09T06:36:55.446Z,18.00
2018-09-09T06:37:29.541Z,18.10
2018-09-09T06:38:03.089Z,18.10
2018-09-09T06:38:36.540Z,18.10
2018-09-09T06:39:11.357Z,18.10
2018-09-09T06:39:46.617Z,18.10
2018-09-09T06:40:20.122Z,18.20
2018-09-09T06:40:58.418Z,18.20
2018-09-09T06:41:32.341Z,18.20
2018-09-09T06:42:05.945Z,18.20
2018-09-09T06:42:39.498Z,18.20
2018-09-09T06:43:13.057Z,18.20
2018-09-09T06:43:46.578Z,18.20
2018-09-09T06:44:20.048Z,18.20
2018-09-09T06:44:54.084Z,18.20
2018-09-09T06:45:27.629Z,18.20
2018-09-09T06:46:01.846Z,18.20
2018-09-09T06:46:35.677Z,18.20
2018-09-09T06:47:10.021Z,18.20
2018-09-09T06:47:43.519Z,18.20
2018-09-09T06:48:17.668Z,18.20
2018-09-09T06:48:51.165Z,18.20
2018-09-09T06:49:24.946Z,18.10
2018-09-09T06:49:58.700Z,18.20
2018-09-09T06:50:32.173Z,18.10
2018-09-09T06:51:06.250Z,18.10
2018-09-09T06:51:39.753Z,18.20
2018-09-09T06:52:13.900Z,18.20
2018-09-09T06:52:47.428Z,18.20
2018-09-09T06:53:21.148Z,18.20
2018-09-09T06:53:55.313Z,18.20
2018-09-09T06:54:29.288Z,18.20
2018-09-09T06:55:02.831Z,18.20
2018-09-09T06:55:36.519Z,18.20
2018-09-09T06:56:10.432Z,18.20
2018-09-09T06:56:44.252Z,18.20
2018-09-09T06:57:17.858Z,18.20
2018-09-09T06:57:51.836Z,18.20
2018-09-09T06:58:25.374Z,18.20
2018-09-09T06:59:00.765Z,18.20
2018-09-09T06:59:34.360Z,18.20
2018-09-09T07:00:08.056Z,18.20
2018-09-09T07:00:41.569Z,18.20
2018-09-09T07:01:15.522Z,18.20
2018-09-09T07:01:49.651Z,18.20
2018-09-09T07:02:23.408Z,18.20
2018-09-09T07:02:56.937Z,18.20
2018-09-09T07:03:31.110Z,18.20
2018-09-09T07:04:05.692Z,18.20
2018-09-09T07:04:39.235Z,18.20
2018-09-09T07:05:12.828Z,18.20
2018-09-09T07:05:46.493Z,18.20
2018-09-09T07:06:20.911Z,18.20
2018-09-09T07:06:55.590Z,18.20
2018-09-09T07:07:29.154Z,18.20
2018-09-09T07:08:03.428Z,18.20
2018-09-09T07:08:37.312Z,18.30
2018-09-09T07:09:11.110Z,18.30
2018-09-09T07:09:44.674Z,18.20
2018-09-09T07:10:18.224Z,18.30
2018-09-09T07:10:52.566Z,18.20
2018-09-09T07:11:26.924Z,18.20
2018-09-09T07:12:00.503Z,18.20
2018-09-09T07:12:33.947Z,18.20
2018-09-09T07:13:08.122Z,18.30
2018-09-09T07:13:42.508Z,18.20
2018-09-09T07:14:16.048Z,18.30
2018-09-09T07:14:49.645Z,18.20
2018-09-09T07:15:23.172Z,18.30
2018-09-09T07:15:56.878Z,18.30
2018-09-09T07:16:30.321Z,18.20
2018-09-09T07:17:04.624Z,18.30
2018-09-09T07:17:38.299Z,18.30
2018-09-09T07:18:11.792Z,18.30
2018-09-09T07:18:45.265Z,18.30
2018-09-09T07:19:18.785Z,18.30